Flight Track Log - Related Links

Times and Time Zones

All times are in EDT time to prevent confusion due to time zone crossing. See the N2102E flight status page for this flight to view local times or setup timezone preferences in your user account.

Time Position Orientation Groundspeed Altitude Reporting Facility
EDT Latitude Longitude Course Direction KTS MPH feet Rate Location/Type
Thu 10:39:41 PM 35.7389 -79.5892 84° East 100 115 5,500  Level Washington Center
Thu 10:40:35 PM 35.7439 -79.5586 79° East 92 106 5,500  Level Washington Center
Thu 10:41:23 PM 35.7489 -79.5333 76° East 94 108 5,500  Level Washington Center
Thu 10:42:30 PM 35.7564 -79.4953 76° East 94 108 5,500  Level Washington Center
Thu 10:43:00 PM 35.7025 -79.6612 76° East  Level Estimated
Thu 10:43:24 PM 35.7617 -79.4675 77° East 95 109 5,500  Level Washington Center
Thu 10:44:25 PM 35.7625 -79.4342 88° East 96 110 5,500 -47 Level Washington Center
Thu 10:45:32 PM 35.7678 -79.4011 79° East 91 105 5,400  Descending Washington Center
Thu 10:46:27 PM 35.7708 -79.3731 82° East 92 106 5,500 103 Climbing Washington Center
Thu 10:47:28 PM 35.7700 -79.3372 92° East 95 109 5,600  Climbing Washington Center
Thu 10:48:29 PM 35.7708 -79.3067 88° East 94 108 5,500 -96 Descending Washington Center
Thu 10:49:33 PM 35.7697 -79.2733 92° East 95 109 5,400 -224 Descending Washington Center
Thu 10:50:43 PM 35.7606 -79.2344 106° East 109 125 5,000 -366 Descending Washington Center
Thu 10:51:44 PM 35.7511 -79.1981 108° East 108 124 4,600 -350 Descending Washington Center
Thu 10:52:43 PM 35.7439 -79.1644 105° East 110 127 4,300 -316 Descending Washington Center
Thu 10:53:38 PM 35.7386 -79.1286 100° East 112 129 4,000 -347 Descending Washington Center
Thu 10:54:44 PM 35.7272 -79.0897 110° East 110 127 3,600 -316 Descending Washington Center
Thu 10:55:32 PM 35.7242 -79.0589 97° East 109 125 3,400 -330 Descending Washington Center
Thu 10:56:33 PM 35.7189 -79.0228 100° East 107 123 3,000 -341 Descending Washington Center
Thu 10:57:35 PM 35.7136 -78.9867 100° East 107 123 2,700 -295 Descending Washington Center
Thu 10:58:35 PM 35.7308 -78.9644 46° Northeast 95 109 2,400 -283 Descending Washington Center
Thu 10:59:42 PM 35.7525 -78.9372 46° Northeast 91 105 2,100 -189 Descending Washington Center
Thu 11:00:42 PM 35.7700 -78.9122 49° Northeast 90 104 2,000 -158 Descending Washington Center
Thu 11:01:36 PM 35.7850 -78.8950 43° Northeast 90 104 1,800 -158 Descending Washington Center
Thu 11:02:36 PM 35.8022 -78.8753 43° Northeast 91 105 1,700 -103 Descending Washington Center
Thu 11:03:32 PM 35.8194 -78.8556 43° Northeast 84 97 1,600 -293 Descending Washington Center
Thu 11:04:39 PM 35.8367 -78.8331 47° Northeast 87 100 1,100 -422 Descending Washington Center
Thu 11:05:40 PM 35.8519 -78.8133 46° Northeast 78 90 700 -393 Descending Washington Center
Thu 11:07:00 PM 35.8667 -78.7833 43° Northeast  Level FlightAware Approximate
Thu 11:14:00 PM 35.8776 -78.7875 43° Northeast  Level Estimated
Thu 11:15:00 PM 35.8776 -78.7875 43° Northeast  Level Estimated

Login

Don't have an account? Register now (free) for customized features, flight alerts, and more!